Time;durP1;ratioP1;P1;durP2;ratioP2;P2;SDS_P1;SDS_P2;PMS_P1;PMS_P2;Temp;Humidity;BMP_temperature;BMP_pressure;BME280_temperature;BME280_humidity;BME280_pressure;Samples;Min_cycle;Max_cycle;Signal;HPM_P1;HPM_P2
2022/06/12 00:02:56;;;;;;;9.15;5.70;;;;;;;16.30;61.24;100690.25;30855792;28;97374;-69
2022/06/12 00:17:58;;;;;;;9.67;6.40;;;;;;;16.15;62.18;100683.09;30853816;28;97553;-65
2022/06/12 00:32:58;;;;;;;11.40;6.60;;;;;;;16.12;62.73;100682.69;30853652;28;97500;-72
2022/06/12 00:48:02;;;;;;;10.45;6.65;;;;;;;15.93;63.37;100670.75;30852763;28;96677;-66
2022/06/12 01:03:02;;;;;;;10.13;5.77;;;;;;;15.79;63.92;100684.03;30864718;28;96723;-67
2022/06/12 01:18:07;;;;;;;13.50;6.53;;;;;;;15.71;64.24;100657.28;30870953;28;97645;-72
2022/06/12 01:33:24;;;;;;;10.33;6.97;;;;;;;15.44;65.07;100648.16;30869538;28;96825;-65
2022/06/12 01:48:39;;;;;;;8.83;6.07;;;;;;;15.37;65.61;100640.84;30867698;28;97387;-73
2022/06/12 02:03:55;;;;;;;8.60;6.87;;;;;;;15.49;65.92;100653.78;30867064;28;97428;-66
2022/06/12 02:18:59;;;;;;;9.47;6.47;;;;;;;15.53;66.09;100653.19;30864732;28;96653;-72
2022/06/12 02:34:12;;;;;;;11.10;6.70;;;;;;;15.64;65.57;100646.50;30863801;28;96762;-69
2022/06/12 02:49:14;;;;;;;8.47;6.43;;;;;;;15.57;66.13;100651.78;30862522;28;97973;-69
2022/06/12 03:04:24;;;;;;;10.87;7.60;;;;;;;15.66;66.36;100657.03;30860545;28;97280;-71
2022/06/12 03:19:29;;;;;;;10.63;8.00;;;;;;;15.59;65.72;100645.41;30857854;28;96694;-65
2022/06/12 03:34:39;;;;;;;11.47;6.87;;;;;;;15.49;66.61;100640.38;30858097;28;96758;-65
2022/06/12 03:50:00;;;;;;;8.10;6.63;;;;;;;15.65;66.93;100639.25;30855818;28;96762;-67
2022/06/12 04:05:04;;;;;;;9.73;6.30;;;;;;;15.80;66.65;100653.50;30853939;28;97173;-69
2022/06/12 04:20:10;;;;;;;9.83;6.50;;;;;;;16.16;66.06;100647.16;30853196;28;97314;-68
2022/06/12 04:35:11;;;;;;;9.10;6.40;;;;;;;16.65;65.66;100644.53;30863717;28;96781;-72
2022/06/12 04:50:14;;;;;;;7.23;5.87;;;;;;;17.26;64.71;100657.22;30872500;28;96713;-64
2022/06/12 05:05:15;;;;;;;10.37;5.53;;;;;;;17.96;63.44;100658.78;30872185;28;96807;-65
2022/06/12 05:20:19;;;;;;;6.75;4.32;;;;;;;18.91;61.10;100661.13;30867190;28;98550;-69
2022/06/12 05:35:21;;;;;;;5.13;3.87;;;;;;;20.02;58.26;100666.28;30866283;28;96795;-66
2022/06/12 05:50:25;;;;;;;6.00;3.83;;;;;;;20.79;55.52;100657.84;30865466;28;97412;-70
2022/06/12 06:05:26;;;;;;;5.77;4.67;;;;;;;21.51;53.67;100665.19;30864483;28;96704;-66
2022/06/12 06:20:30;;;;;;;6.20;4.07;;;;;;;22.70;50.96;100673.44;30862407;28;96696;-65
2022/06/12 06:35:31;;;;;;;6.87;4.37;;;;;;;24.10;47.69;100672.25;30861001;28;97043;-65
2022/06/12 06:50:33;;;;;;;5.00;3.78;;;;;;;25.07;44.93;100669.16;30858360;28;97397;-71
2022/06/12 07:05:35;;;;;;;3.27;2.50;;;;;;;26.15;42.37;100667.50;30856666;28;96832;-66
2022/06/12 07:20:38;;;;;;;5.60;3.40;;;;;;;26.54;40.69;100664.41;30855092;28;96648;-66
2022/06/12 07:35:41;;;;;;;4.80;3.47;;;;;;;26.86;40.74;100655.31;30855432;28;96803;-68
2022/06/12 07:50:42;;;;;;;7.07;3.37;;;;;;;27.63;39.17;100647.25;30853703;28;96685;-63
2022/06/12 08:05:43;;;;;;;3.70;1.90;;;;;;;28.25;36.04;100649.94;30851049;28;96736;-64
2022/06/12 08:20:47;;;;;;;4.97;2.30;;;;;;;28.89;33.99;100641.25;30850592;28;96726;-68
2022/06/12 08:35:49;;;;;;;4.27;1.30;;;;;;;29.42;31.22;100629.69;30851816;28;97513;-65
2022/06/12 08:51:06;;;;;;;2.97;1.63;;;;;;;29.84;29.82;100618.06;30851152;28;97176;-67
2022/06/12 09:06:31;;;;;;;2.90;1.60;;;;;;;30.15;28.95;100615.00;30849172;28;96778;-64
2022/06/12 09:21:56;;;;;;;2.47;1.50;;;;;;;31.11;27.64;100590.44;30856465;28;97595;-65
2022/06/12 09:52:39;;;;;;;1.70;1.50;;;;;;;33.36;23.50;100562.25;30865749;28;96884;-64
2022/06/12 10:07:50;;;;;;;2.30;1.57;;;;;;;31.96;24.82;100555.41;30864291;28;96726;-65
2022/06/12 10:22:53;;;;;;;1.97;1.20;;;;;;;32.40;24.30;100529.16;30861519;28;96808;-63
2022/06/12 10:38:06;;;;;;;2.27;1.10;;;;;;;31.83;23.62;100521.22;30861107;28;97411;-62
2022/06/12 10:53:09;;;;;;;4.57;1.37;;;;;;;30.82;25.32;100517.16;30860124;28;96814;-65
2022/06/12 11:08:33;;;;;;;3.50;1.60;;;;;;;29.83;26.38;100519.50;30858059;28;96670;-66
2022/06/12 11:23:52;;;;;;;3.30;1.60;;;;;;;30.02;26.82;100492.94;30855495;28;97529;-68
2022/06/12 11:39:17;;;;;;;3.40;1.33;;;;;;;31.40;25.86;100471.91;30856332;28;97201;-63
2022/06/12 11:54:45;;;;;;;1.87;1.10;;;;;;;30.07;26.15;100472.81;30855091;28;97080;-63
2022/06/12 12:10:05;;;;;;;1.67;1.20;;;;;;;30.37;25.44;100448.78;30853851;28;96894;-66
2022/06/12 12:25:24;;;;;;;2.23;1.30;;;;;;;30.51;25.31;100429.63;30844078;28;97074;-66
2022/06/12 12:56:00;;;;;;;;;;;;;;;31.76;23.36;100412.59;30861098;28;97514;-64
2022/06/12 13:11:07;;;;;;;;;;;;;;;31.76;22.76;100390.56;30871065;28;97167;-64
2022/06/12 13:26:13;;;;;;;1.67;0.90;;;;;;;32.89;22.31;100371.38;30870109;28;96753;-69
2022/06/12 13:41:37;;;;;;;2.30;0.87;;;;;;;33.04;21.41;100359.94;30867618;28;97059;-65
2022/06/12 13:56:43;;;;;;;2.13;1.10;;;;;;;32.48;21.94;100344.81;30866003;28;96708;-65
2022/06/12 14:11:45;;;;;;;1.40;1.00;;;;;;;31.32;23.00;100327.56;30862553;28;96717;-64
2022/06/12 14:26:47;;;;;;;1.73;1.00;;;;;;;30.87;23.65;100291.56;30861849;28;96817;-65
2022/06/12 14:42:15;;;;;;;2.30;1.13;;;;;;;29.93;24.46;100294.22;30861577;28;96703;-66
2022/06/12 14:57:16;;;;;;;2.80;1.10;;;;;;;30.04;24.83;100273.75;30860611;28;96802;-66
2022/06/12 15:12:22;;;;;;;2.57;1.20;;;;;;;29.52;25.16;100264.59;30857281;28;96667;-66
2022/06/12 15:42:41;;;;;;;2.30;1.10;;;;;;;27.85;28.08;100250.06;30855734;28;96725;-65
2022/06/12 15:57:42;;;;;;;2.03;1.30;;;;;;;27.63;28.92;100239.53;30855259;28;97302;-65
2022/06/12 16:12:44;;;;;;;1.90;1.50;;;;;;;27.67;30.25;100215.16;30851870;28;96854;-67
2022/06/12 16:27:45;;;;;;;2.10;1.40;;;;;;;27.58;30.40;100195.78;30856660;28;96850;-70
2022/06/12 16:42:46;;;;;;;2.17;1.63;;;;;;;27.27;31.58;100185.03;30872053;28;97548;-70
2022/06/12 16:57:46;;;;;;;5.03;1.60;;;;;;;26.92;32.57;100173.16;30871409;28;97405;-73
2022/06/12 17:12:46;;;;;;;2.80;1.50;;;;;;;26.76;33.18;100166.91;30869261;28;97291;-65
2022/06/12 17:27:47;;;;;;;7.43;2.13;;;;;;;26.52;33.43;100159.34;30917702;28;96960;-66
2022/06/12 17:42:47;;;;;;;4.35;2.00;;;;;;;26.41;33.92;100151.44;30979530;28;97984;-69
2022/06/12 17:57:48;;;;;;;4.47;1.88;;;;;;;26.06;35.03;100140.31;30977417;28;97360;-66
2022/06/12 18:12:50;;;;;;;5.30;2.17;;;;;;;25.67;36.47;100138.94;30975413;28;97373;-65
2022/06/12 18:27:50;;;;;;;3.53;2.00;;;;;;;25.20;38.08;100139.94;30975269;28;97279;-66
2022/06/12 18:42:51;;;;;;;4.55;2.17;;;;;;;24.86;39.52;100132.19;30974576;28;104525;-72
2022/06/12 18:57:51;;;;;;;4.22;2.47;;;;;;;24.53;40.19;100139.66;30972196;28;97199;-66
2022/06/12 19:12:52;;;;;;;6.03;2.80;;;;;;;24.09;41.77;100138.03;30907379;28;97444;-67
2022/06/12 19:27:52;;;;;;;;;;;;;;;23.82;42.83;100144.34;30857469;28;96758;-67
2022/06/12 19:42:54;;;;;;;5.23;2.80;;;;;;;23.55;43.83;100155.28;30856880;28;97555;-65
2022/06/12 19:57:54;;;;;;;7.40;3.87;;;;;;;23.26;45.51;100182.69;30853508;28;96779;-66
2022/06/12 20:12:55;;;;;;;6.77;2.90;;;;;;;23.00;45.91;100167.94;30891750;28;96778;-66
2022/06/12 20:27:55;;;;;;;11.55;2.30;;;;;;;22.81;45.21;100156.59;30967716;28;97038;-71
2022/06/12 20:42:56;;;;;;;5.13;2.57;;;;;;;22.65;46.12;100150.97;31040216;28;96724;-70
2022/06/12 20:57:56;;;;;;;3.50;2.37;;;;;;;22.99;46.09;100169.84;31095845;28;97135;-70
2022/06/12 21:12:56;;;;;;;13.33;7.37;;;;;;;22.85;46.11;100149.56;31093679;28;97455;-69
2022/06/12 21:27:57;;;;;;;8.40;3.50;;;;;;;22.51;46.99;100162.44;30990341;28;97047;-71
2022/06/12 21:42:58;;;;;;;6.32;3.50;;;;;;;22.43;47.85;100155.53;30988435;28;97037;-65
2022/06/12 21:57:58;;;;;;;6.03;3.35;;;;;;;22.18;48.62;100132.34;30987107;28;96967;-70
2022/06/12 22:12:59;;;;;;;4.27;3.30;;;;;;;22.29;48.55;100134.16;30988355;28;96676;-68
2022/06/12 22:28:00;;;;;;;5.17;3.30;;;;;;;22.26;49.54;100112.13;30988182;28;96755;-72
2022/06/12 22:43:01;;;;;;;5.37;3.30;;;;;;;22.61;49.53;100138.97;30986434;28;97200;-66
2022/06/12 22:58:01;;;;;;;10.00;3.60;;;;;;;21.93;50.80;100102.97;30986024;28;97053;-64
2022/06/12 23:13:02;;;;;;;5.43;3.40;;;;;;;21.71;52.27;100117.28;30984476;28;96714;-66
2022/06/12 23:28:03;;;;;;;9.07;4.27;;;;;;;20.59;55.21;100108.63;30982555;28;96682;-68
2022/06/12 23:43:03;;;;;;;5.82;4.20;;;;;;;19.76;58.29;100049.16;30980519;28;97256;-65
2022/06/12 23:58:04;;;;;;;5.60;4.00;;;;;;;19.30;59.86;100069.66;30980289;28;96801;-71
